Close

Weather

The weather information here should not replace a pre-flight briefing, and may not be accurate at any given time due to internet outages or other issues.

6NM NNE of NC26
STATESVILLE, NC
Metar
KSVH 260100Z AUTO 00000KT 10SM SCT110 28/21 A3009 RMK AO2 T02780209

01:00 UTC

Wind: 0° 0kt

Visibility: 10 SM

Sky: SCT 11000 ft

Temp: 28 deg C / 82.4 deg F

Dewpoint: 21 deg C / 69.8 deg F

Pressure: 30.09 inHg

21NM NW of NC26
HICKORY, NC
Metar
KHKY 260053Z AUTO 15003KT 10SM FEW070 FEW095 23/22 A3011 RMK AO2 RAB02E18 TSB23E38 SLP174 P0003 T02280217

00:53 UTC

Wind: 150° 3kt

Visibility: 10 SM

Sky: FEW 7000 ft

Temp: 23 deg C / 73.4 deg F

Dewpoint: 22 deg C / 71.6 deg F

Pressure: 30.11 inHg


Wind Graph at Long Island